sensor_id;sensor_type;location;lat;lon;timestamp;temperature;humidity
29345;DHT22;16339;48.748;2.222;2023-07-31T00:00:06;23.10;84.40
29345;DHT22;16339;48.748;2.222;2023-07-31T00:02:35;23.00;84.50
29345;DHT22;16339;48.748;2.222;2023-07-31T00:05:05;23.00;84.40
29345;DHT22;16339;48.748;2.222;2023-07-31T00:07:34;23.00;84.20
29345;DHT22;16339;48.748;2.222;2023-07-31T00:10:02;23.00;83.60
29345;DHT22;16339;48.748;2.222;2023-07-31T00:12:34;23.00;83.80
29345;DHT22;16339;48.748;2.222;2023-07-31T00:15:03;23.00;84.50
29345;DHT22;16339;48.748;2.222;2023-07-31T00:20:42;22.90;83.20
29345;DHT22;16339;48.748;2.222;2023-07-31T00:23:11;22.90;83.30
29345;DHT22;16339;48.748;2.222;2023-07-31T00:25:40;22.90;83.50
29345;DHT22;16339;48.748;2.222;2023-07-31T00:28:11;22.90;83.30
29345;DHT22;16339;48.748;2.222;2023-07-31T00:30:40;22.90;83.80
29345;DHT22;16339;48.748;2.222;2023-07-31T00:33:08;23.00;84.50
29345;DHT22;16339;48.748;2.222;2023-07-31T00:35:37;23.00;84.40
29345;DHT22;16339;48.748;2.222;2023-07-31T00:38:06;22.90;84.50
29345;DHT22;16339;48.748;2.222;2023-07-31T00:40:35;23.00;84.80
29345;DHT22;16339;48.748;2.222;2023-07-31T00:43:04;22.90;84.50
29345;DHT22;16339;48.748;2.222;2023-07-31T00:45:35;23.00;84.40
29345;DHT22;16339;48.748;2.222;2023-07-31T00:48:04;22.90;84.00
29345;DHT22;16339;48.748;2.222;2023-07-31T00:50:35;23.00;83.90
29345;DHT22;16339;48.748;2.222;2023-07-31T00:53:04;23.00;83.60
29345;DHT22;16339;48.748;2.222;2023-07-31T00:55:33;22.90;83.80
29345;DHT22;16339;48.748;2.222;2023-07-31T00:58:02;22.90;84.10
29345;DHT22;16339;48.748;2.222;2023-07-31T01:00:30;22.90;84.20
29345;DHT22;16339;48.748;2.222;2023-07-31T01:03:03;22.80;83.50
29345;DHT22;16339;48.748;2.222;2023-07-31T01:05:39;22.80;83.30
29345;DHT22;16339;48.748;2.222;2023-07-31T01:08:17;22.70;83.40
29345;DHT22;16339;48.748;2.222;2023-07-31T01:10:50;22.70;83.50
29345;DHT22;16339;48.748;2.222;2023-07-31T01:13:19;22.60;83.40
29345;DHT22;16339;48.748;2.222;2023-07-31T01:15:48;22.60;83.50
29345;DHT22;16339;48.748;2.222;2023-07-31T01:18:19;22.60;83.80
29345;DHT22;16339;48.748;2.222;2023-07-31T01:20:50;22.60;84.10
29345;DHT22;16339;48.748;2.222;2023-07-31T01:23:42;22.60;83.70
29345;DHT22;16339;48.748;2.222;2023-07-31T01:26:22;22.60;83.60
29345;DHT22;16339;48.748;2.222;2023-07-31T01:28:56;22.60;83.10
29345;DHT22;16339;48.748;2.222;2023-07-31T01:31:29;22.60;83.30
29345;DHT22;16339;48.748;2.222;2023-07-31T01:34:00;22.60;83.10
29345;DHT22;16339;48.748;2.222;2023-07-31T01:36:30;22.60;83.00
29345;DHT22;16339;48.748;2.222;2023-07-31T01:38:59;22.60;82.90
29345;DHT22;16339;48.748;2.222;2023-07-31T01:41:32;22.60;83.10
29345;DHT22;16339;48.748;2.222;2023-07-31T01:44:00;22.50;83.30
29345;DHT22;16339;48.748;2.222;2023-07-31T01:46:29;22.60;83.40
29345;DHT22;16339;48.748;2.222;2023-07-31T01:48:57;22.60;83.00
29345;DHT22;16339;48.748;2.222;2023-07-31T01:51:26;22.50;83.00
29345;DHT22;16339;48.748;2.222;2023-07-31T01:53:55;22.50;83.10
29345;DHT22;16339;48.748;2.222;2023-07-31T01:56:23;22.50;83.00
29345;DHT22;16339;48.748;2.222;2023-07-31T01:58:55;22.40;83.00
29345;DHT22;16339;48.748;2.222;2023-07-31T02:01:23;22.40;83.10
29345;DHT22;16339;48.748;2.222;2023-07-31T02:03:52;22.50;83.10
29345;DHT22;16339;48.748;2.222;2023-07-31T02:06:21;22.50;83.00
29345;DHT22;16339;48.748;2.222;2023-07-31T02:08:49;22.40;83.20
29345;DHT22;16339;48.748;2.222;2023-07-31T02:11:18;22.40;83.10
29345;DHT22;16339;48.748;2.222;2023-07-31T02:13:47;22.40;82.90
29345;DHT22;16339;48.748;2.222;2023-07-31T02:16:18;22.30;83.30
29345;DHT22;16339;48.748;2.222;2023-07-31T02:18:46;22.20;83.10
29345;DHT22;16339;48.748;2.222;2023-07-31T02:21:15;22.20;82.70
29345;DHT22;16339;48.748;2.222;2023-07-31T02:23:44;22.20;82.50
29345;DHT22;16339;48.748;2.222;2023-07-31T02:26:12;22.30;82.60
29345;DHT22;16339;48.748;2.222;2023-07-31T02:28:41;22.30;82.60
29345;DHT22;16339;48.748;2.222;2023-07-31T02:31:10;22.20;82.50
29345;DHT22;16339;48.748;2.222;2023-07-31T02:33:41;22.20;82.80
29345;DHT22;16339;48.748;2.222;2023-07-31T02:36:10;22.10;83.60
29345;DHT22;16339;48.748;2.222;2023-07-31T02:38:38;22.20;84.00
29345;DHT22;16339;48.748;2.222;2023-07-31T02:41:07;22.10;83.60
29345;DHT22;16339;48.748;2.222;2023-07-31T02:43:36;22.00;83.30
29345;DHT22;16339;48.748;2.222;2023-07-31T02:46:04;22.00;83.20
29345;DHT22;16339;48.748;2.222;2023-07-31T02:48:33;22.00;83.40
29345;DHT22;16339;48.748;2.222;2023-07-31T02:51:04;22.10;83.30
29345;DHT22;16339;48.748;2.222;2023-07-31T02:53:33;22.10;83.30
29345;DHT22;16339;48.748;2.222;2023-07-31T02:56:02;22.10;83.40
29345;DHT22;16339;48.748;2.222;2023-07-31T02:58:30;22.10;83.20
29345;DHT22;16339;48.748;2.222;2023-07-31T03:00:59;22.10;83.00
29345;DHT22;16339;48.748;2.222;2023-07-31T03:03:28;22.10;82.80
29345;DHT22;16339;48.748;2.222;2023-07-31T03:05:57;22.20;83.70
29345;DHT22;16339;48.748;2.222;2023-07-31T03:08:28;22.10;82.80
29345;DHT22;16339;48.748;2.222;2023-07-31T03:10:56;22.20;82.90
29345;DHT22;16339;48.748;2.222;2023-07-31T03:13:25;22.20;83.00
29345;DHT22;16339;48.748;2.222;2023-07-31T03:15:54;22.20;83.00
29345;DHT22;16339;48.748;2.222;2023-07-31T03:18:22;22.10;83.00
29345;DHT22;16339;48.748;2.222;2023-07-31T03:20:51;22.00;83.30
29345;DHT22;16339;48.748;2.222;2023-07-31T03:23:20;22.00;83.30
29345;DHT22;16339;48.748;2.222;2023-07-31T03:26:01;21.90;83.50
29345;DHT22;16339;48.748;2.222;2023-07-31T03:28:30;21.90;83.50
29345;DHT22;16339;48.748;2.222;2023-07-31T03:30:59;22.00;83.60
29345;DHT22;16339;48.748;2.222;2023-07-31T03:33:28;22.10;83.50
29345;DHT22;16339;48.748;2.222;2023-07-31T03:35:57;22.10;83.60
29345;DHT22;16339;48.748;2.222;2023-07-31T03:38:25;22.10;83.50
29345;DHT22;16339;48.748;2.222;2023-07-31T03:40:54;22.10;83.10
29345;DHT22;16339;48.748;2.222;2023-07-31T03:43:27;22.10;83.00
29345;DHT22;16339;48.748;2.222;2023-07-31T03:45:55;21.90;82.90
29345;DHT22;16339;48.748;2.222;2023-07-31T03:48:24;21.80;82.70
29345;DHT22;16339;48.748;2.222;2023-07-31T03:50:52;21.70;82.60
29345;DHT22;16339;48.748;2.222;2023-07-31T03:53:21;21.50;83.20
29345;DHT22;16339;48.748;2.222;2023-07-31T03:55:50;21.60;83.30
29345;DHT22;16339;48.748;2.222;2023-07-31T03:58:18;21.60;84.20
29345;DHT22;16339;48.748;2.222;2023-07-31T04:00:50;21.60;83.20
29345;DHT22;16339;48.748;2.222;2023-07-31T04:03:18;21.40;83.00
29345;DHT22;16339;48.748;2.222;2023-07-31T04:05:47;21.40;83.30
29345;DHT22;16339;48.748;2.222;2023-07-31T04:08:16;21.50;83.00
29345;DHT22;16339;48.748;2.222;2023-07-31T04:10:44;21.50;82.80
29345;DHT22;16339;48.748;2.222;2023-07-31T04:13:13;21.50;82.70
29345;DHT22;16339;48.748;2.222;2023-07-31T04:15:42;21.60;82.70
29345;DHT22;16339;48.748;2.222;2023-07-31T04:18:13;21.60;82.40
29345;DHT22;16339;48.748;2.222;2023-07-31T04:20:42;21.60;82.40
29345;DHT22;16339;48.748;2.222;2023-07-31T04:23:10;21.60;82.30
29345;DHT22;16339;48.748;2.222;2023-07-31T04:25:41;21.60;82.10
29345;DHT22;16339;48.748;2.222;2023-07-31T04:28:10;21.40;82.20
29345;DHT22;16339;48.748;2.222;2023-07-31T04:30:39;21.40;82.20
29345;DHT22;16339;48.748;2.222;2023-07-31T04:33:08;21.40;82.00
29345;DHT22;16339;48.748;2.222;2023-07-31T04:35:39;21.50;82.00
29345;DHT22;16339;48.748;2.222;2023-07-31T04:38:07;21.50;82.30
29345;DHT22;16339;48.748;2.222;2023-07-31T04:40:36;21.50;82.20
29345;DHT22;16339;48.748;2.222;2023-07-31T04:43:06;21.40;81.90
29345;DHT22;16339;48.748;2.222;2023-07-31T04:45:35;21.40;82.20
29345;DHT22;16339;48.748;2.222;2023-07-31T04:48:04;21.40;82.60
29345;DHT22;16339;48.748;2.222;2023-07-31T04:50:33;21.40;82.60
29345;DHT22;16339;48.748;2.222;2023-07-31T04:53:04;21.40;82.80
29345;DHT22;16339;48.748;2.222;2023-07-31T04:55:33;21.30;83.30
29345;DHT22;16339;48.748;2.222;2023-07-31T04:58:01;21.30;83.20
29345;DHT22;16339;48.748;2.222;2023-07-31T05:00:30;21.30;83.50
29345;DHT22;16339;48.748;2.222;2023-07-31T05:02:59;21.40;83.50
29345;DHT22;16339;48.748;2.222;2023-07-31T05:05:28;21.40;83.60
29345;DHT22;16339;48.748;2.222;2023-07-31T05:07:56;21.40;83.90
29345;DHT22;16339;48.748;2.222;2023-07-31T05:10:28;21.30;84.50
29345;DHT22;16339;48.748;2.222;2023-07-31T05:12:57;21.20;85.20
29345;DHT22;16339;48.748;2.222;2023-07-31T05:15:25;21.20;85.30
29345;DHT22;16339;48.748;2.222;2023-07-31T05:17:54;21.10;86.30
29345;DHT22;16339;48.748;2.222;2023-07-31T05:20:23;21.20;86.20
29345;DHT22;16339;48.748;2.222;2023-07-31T05:22:53;21.20;86.40
29345;DHT22;16339;48.748;2.222;2023-07-31T05:25:24;21.10;86.90
29345;DHT22;16339;48.748;2.222;2023-07-31T05:27:55;21.10;86.90
29345;DHT22;16339;48.748;2.222;2023-07-31T05:30:24;21.10;87.30
29345;DHT22;16339;48.748;2.222;2023-07-31T05:32:52;21.20;87.20
29345;DHT22;16339;48.748;2.222;2023-07-31T05:35:21;21.30;87.00
29345;DHT22;16339;48.748;2.222;2023-07-31T05:37:50;21.30;87.10
29345;DHT22;16339;48.748;2.222;2023-07-31T05:40:18;21.20;87.30
29345;DHT22;16339;48.748;2.222;2023-07-31T05:42:47;21.10;88.20
29345;DHT22;16339;48.748;2.222;2023-07-31T05:45:18;21.20;88.20
29345;DHT22;16339;48.748;2.222;2023-07-31T05:47:47;21.30;88.90
29345;DHT22;16339;48.748;2.222;2023-07-31T05:50:16;21.40;87.90
29345;DHT22;16339;48.748;2.222;2023-07-31T05:52:44;21.20;88.00
29345;DHT22;16339;48.748;2.222;2023-07-31T05:55:13;21.30;88.50
29345;DHT22;16339;48.748;2.222;2023-07-31T05:57:42;21.40;88.30
29345;DHT22;16339;48.748;2.222;2023-07-31T06:00:12;21.50;88.20
29345;DHT22;16339;48.748;2.222;2023-07-31T06:02:44;21.40;88.10
29345;DHT22;16339;48.748;2.222;2023-07-31T06:05:12;21.30;88.30
29345;DHT22;16339;48.748;2.222;2023-07-31T06:07:41;21.30;88.80
29345;DHT22;16339;48.748;2.222;2023-07-31T06:10:10;21.40;89.40
29345;DHT22;16339;48.748;2.222;2023-07-31T06:12:39;21.40;88.60
29345;DHT22;16339;48.748;2.222;2023-07-31T06:15:08;21.50;88.60
29345;DHT22;16339;48.748;2.222;2023-07-31T06:17:37;21.40;88.90
29345;DHT22;16339;48.748;2.222;2023-07-31T06:20:09;21.40;89.10
29345;DHT22;16339;48.748;2.222;2023-07-31T06:22:38;21.60;88.90
29345;DHT22;16339;48.748;2.222;2023-07-31T06:25:07;21.50;89.20
29345;DHT22;16339;48.748;2.222;2023-07-31T06:27:36;21.50;90.10
29345;DHT22;16339;48.748;2.222;2023-07-31T06:30:07;21.40;89.40
29345;DHT22;16339;48.748;2.222;2023-07-31T06:32:36;21.50;89.40
29345;DHT22;16339;48.748;2.222;2023-07-31T06:35:09;21.40;89.70
29345;DHT22;16339;48.748;2.222;2023-07-31T06:37:38;21.60;89.50
29345;DHT22;16339;48.748;2.222;2023-07-31T06:40:10;21.70;89.10
29345;DHT22;16339;48.748;2.222;2023-07-31T06:42:38;21.80;88.90
29345;DHT22;16339;48.748;2.222;2023-07-31T06:45:08;21.90;88.60
29345;DHT22;16339;48.748;2.222;2023-07-31T06:47:37;21.60;89.20
29345;DHT22;16339;48.748;2.222;2023-07-31T06:50:09;21.70;89.30
29345;DHT22;16339;48.748;2.222;2023-07-31T06:52:41;21.80;89.40
29345;DHT22;16339;48.748;2.222;2023-07-31T06:55:17;21.70;89.10
29345;DHT22;16339;48.748;2.222;2023-07-31T06:57:47;21.70;89.40
29345;DHT22;16339;48.748;2.222;2023-07-31T07:00:17;21.80;89.20
29345;DHT22;16339;48.748;2.222;2023-07-31T07:02:46;21.90;89.10
29345;DHT22;16339;48.748;2.222;2023-07-31T07:05:18;21.80;88.70
29345;DHT22;16339;48.748;2.222;2023-07-31T07:07:49;21.90;89.10
29345;DHT22;16339;48.748;2.222;2023-07-31T07:10:18;21.90;88.90
29345;DHT22;16339;48.748;2.222;2023-07-31T07:12:48;21.80;89.00
29345;DHT22;16339;48.748;2.222;2023-07-31T07:15:17;22.00;89.20
29345;DHT22;16339;48.748;2.222;2023-07-31T07:17:46;21.70;89.60
29345;DHT22;16339;48.748;2.222;2023-07-31T07:20:20;21.70;89.50
29345;DHT22;16339;48.748;2.222;2023-07-31T07:22:49;21.70;89.50
29345;DHT22;16339;48.748;2.222;2023-07-31T07:25:18;21.90;89.30
29345;DHT22;16339;48.748;2.222;2023-07-31T07:27:49;21.80;89.40
29345;DHT22;16339;48.748;2.222;2023-07-31T07:30:18;21.70;89.50
29345;DHT22;16339;48.748;2.222;2023-07-31T07:32:47;21.60;89.80
29345;DHT22;16339;48.748;2.222;2023-07-31T07:35:15;21.70;89.90
29345;DHT22;16339;48.748;2.222;2023-07-31T07:37:48;21.90;89.50
29345;DHT22;16339;48.748;2.222;2023-07-31T07:40:17;21.80;88.80
29345;DHT22;16339;48.748;2.222;2023-07-31T07:42:46;21.90;89.20
29345;DHT22;16339;48.748;2.222;2023-07-31T07:45:15;21.80;89.10
29345;DHT22;16339;48.748;2.222;2023-07-31T07:47:43;21.80;89.00
29345;DHT22;16339;48.748;2.222;2023-07-31T07:50:12;21.80;88.80
29345;DHT22;16339;48.748;2.222;2023-07-31T07:52:41;21.50;89.10
29345;DHT22;16339;48.748;2.222;2023-07-31T07:55:12;21.60;89.10
29345;DHT22;16339;48.748;2.222;2023-07-31T07:57:40;21.50;88.40
29345;DHT22;16339;48.748;2.222;2023-07-31T08:00:11;21.50;89.10
29345;DHT22;16339;48.748;2.222;2023-07-31T08:02:40;21.80;88.40
29345;DHT22;16339;48.748;2.222;2023-07-31T08:05:09;21.80;88.50
29345;DHT22;16339;48.748;2.222;2023-07-31T08:07:38;21.90;88.20
29345;DHT22;16339;48.748;2.222;2023-07-31T08:10:07;22.00;87.80
29345;DHT22;16339;48.748;2.222;2023-07-31T08:12:38;22.20;87.40
29345;DHT22;16339;48.748;2.222;2023-07-31T08:15:07;22.20;87.00
29345;DHT22;16339;48.748;2.222;2023-07-31T08:17:36;22.20;86.70
29345;DHT22;16339;48.748;2.222;2023-07-31T08:20:06;22.30;86.50
29345;DHT22;16339;48.748;2.222;2023-07-31T08:22:38;22.30;86.60
29345;DHT22;16339;48.748;2.222;2023-07-31T08:25:08;22.20;86.30
29345;DHT22;16339;48.748;2.222;2023-07-31T08:27:43;22.30;86.30
29345;DHT22;16339;48.748;2.222;2023-07-31T08:30:12;22.10;86.20
29345;DHT22;16339;48.748;2.222;2023-07-31T08:32:41;22.00;86.50
29345;DHT22;16339;48.748;2.222;2023-07-31T08:35:10;21.80;88.20
29345;DHT22;16339;48.748;2.222;2023-07-31T08:37:38;22.00;87.30
29345;DHT22;16339;48.748;2.222;2023-07-31T08:40:08;22.10;87.50
29345;DHT22;16339;48.748;2.222;2023-07-31T08:42:47;22.30;87.00
29345;DHT22;16339;48.748;2.222;2023-07-31T08:45:17;22.20;86.50
29345;DHT22;16339;48.748;2.222;2023-07-31T08:47:49;22.10;86.90
29345;DHT22;16339;48.748;2.222;2023-07-31T08:50:20;22.00;87.00
29345;DHT22;16339;48.748;2.222;2023-07-31T08:52:50;22.00;87.50
29345;DHT22;16339;48.748;2.222;2023-07-31T08:55:26;22.10;87.50
29345;DHT22;16339;48.748;2.222;2023-07-31T08:57:59;22.30;87.70
29345;DHT22;16339;48.748;2.222;2023-07-31T09:00:37;22.30;87.20
29345;DHT22;16339;48.748;2.222;2023-07-31T09:03:09;22.40;87.20
29345;DHT22;16339;48.748;2.222;2023-07-31T09:05:43;22.40;87.70
29345;DHT22;16339;48.748;2.222;2023-07-31T09:08:14;22.50;87.80
29345;DHT22;16339;48.748;2.222;2023-07-31T09:10:44;22.50;87.90
29345;DHT22;16339;48.748;2.222;2023-07-31T09:13:17;22.60;87.50
29345;DHT22;16339;48.748;2.222;2023-07-31T09:15:46;22.60;87.80
29345;DHT22;16339;48.748;2.222;2023-07-31T09:18:15;22.70;87.50
29345;DHT22;16339;48.748;2.222;2023-07-31T09:25:59;22.90;87.60
29345;DHT22;16339;48.748;2.222;2023-07-31T09:28:33;22.90;87.60
29345;DHT22;16339;48.748;2.222;2023-07-31T09:31:02;22.90;87.50
29345;DHT22;16339;48.748;2.222;2023-07-31T09:33:31;22.90;87.80
29345;DHT22;16339;48.748;2.222;2023-07-31T09:36:00;22.60;88.00
29345;DHT22;16339;48.748;2.222;2023-07-31T09:38:29;22.60;88.10
29345;DHT22;16339;48.748;2.222;2023-07-31T09:40:59;22.60;88.50
29345;DHT22;16339;48.748;2.222;2023-07-31T09:43:33;22.60;89.10
29345;DHT22;16339;48.748;2.222;2023-07-31T09:46:01;22.70;88.40
29345;DHT22;16339;48.748;2.222;2023-07-31T09:48:39;22.80;87.80
29345;DHT22;16339;48.748;2.222;2023-07-31T09:51:07;22.60;88.00
29345;DHT22;16339;48.748;2.222;2023-07-31T09:53:36;22.60;88.40
29345;DHT22;16339;48.748;2.222;2023-07-31T09:56:05;22.70;88.20
29345;DHT22;16339;48.748;2.222;2023-07-31T09:58:36;22.90;87.90
29345;DHT22;16339;48.748;2.222;2023-07-31T10:01:05;23.00;88.20
29345;DHT22;16339;48.748;2.222;2023-07-31T10:03:36;23.20;86.70
29345;DHT22;16339;48.748;2.222;2023-07-31T10:06:08;23.30;86.20
29345;DHT22;16339;48.748;2.222;2023-07-31T10:08:40;23.20;85.70
29345;DHT22;16339;48.748;2.222;2023-07-31T10:11:11;22.90;86.10
29345;DHT22;16339;48.748;2.222;2023-07-31T10:13:44;22.70;87.30
29345;DHT22;16339;48.748;2.222;2023-07-31T10:16:14;22.60;87.80
29345;DHT22;16339;48.748;2.222;2023-07-31T10:18:48;22.40;88.90
29345;DHT22;16339;48.748;2.222;2023-07-31T10:21:18;22.60;89.00
29345;DHT22;16339;48.748;2.222;2023-07-31T10:23:47;22.30;90.20
29345;DHT22;16339;48.748;2.222;2023-07-31T10:26:17;22.40;90.80
29345;DHT22;16339;48.748;2.222;2023-07-31T10:28:50;22.50;91.10
29345;DHT22;16339;48.748;2.222;2023-07-31T10:31:24;22.30;90.60
29345;DHT22;16339;48.748;2.222;2023-07-31T10:33:53;22.50;91.00
29345;DHT22;16339;48.748;2.222;2023-07-31T10:36:22;22.50;90.90
29345;DHT22;16339;48.748;2.222;2023-07-31T10:38:52;22.50;91.20
29345;DHT22;16339;48.748;2.222;2023-07-31T10:41:29;22.20;91.70
29345;DHT22;16339;48.748;2.222;2023-07-31T10:44:01;22.00;92.60
29345;DHT22;16339;48.748;2.222;2023-07-31T10:46:32;21.80;93.20
29345;DHT22;16339;48.748;2.222;2023-07-31T10:49:02;21.90;93.70
29345;DHT22;16339;48.748;2.222;2023-07-31T10:51:35;21.80;93.30
29345;DHT22;16339;48.748;2.222;2023-07-31T10:54:16;21.80;93.70
29345;DHT22;16339;48.748;2.222;2023-07-31T10:56:45;21.80;94.10
29345;DHT22;16339;48.748;2.222;2023-07-31T10:59:17;21.50;94.00
29345;DHT22;16339;48.748;2.222;2023-07-31T11:01:53;21.60;94.20
29345;DHT22;16339;48.748;2.222;2023-07-31T11:04:23;21.90;94.50
29345;DHT22;16339;48.748;2.222;2023-07-31T11:06:56;21.90;94.10
29345;DHT22;16339;48.748;2.222;2023-07-31T11:09:28;21.90;93.90
29345;DHT22;16339;48.748;2.222;2023-07-31T11:11:58;21.80;93.70
29345;DHT22;16339;48.748;2.222;2023-07-31T11:14:30;21.80;93.60
29345;DHT22;16339;48.748;2.222;2023-07-31T11:16:58;21.90;93.30
29345;DHT22;16339;48.748;2.222;2023-07-31T11:19:27;21.70;93.70
29345;DHT22;16339;48.748;2.222;2023-07-31T11:21:56;21.90;93.60
29345;DHT22;16339;48.748;2.222;2023-07-31T11:24:27;22.10;93.50
29345;DHT22;16339;48.748;2.222;2023-07-31T11:26:55;22.10;93.10
29345;DHT22;16339;48.748;2.222;2023-07-31T11:29:30;22.20;93.30
29345;DHT22;16339;48.748;2.222;2023-07-31T11:31:58;22.40;93.10
29345;DHT22;16339;48.748;2.222;2023-07-31T11:34:29;22.60;92.60
29345;DHT22;16339;48.748;2.222;2023-07-31T11:36:58;22.70;92.90
29345;DHT22;16339;48.748;2.222;2023-07-31T11:39:27;22.90;92.70
29345;DHT22;16339;48.748;2.222;2023-07-31T11:41:58;23.10;92.40
29345;DHT22;16339;48.748;2.222;2023-07-31T11:44:40;23.20;91.70
29345;DHT22;16339;48.748;2.222;2023-07-31T11:47:13;23.20;91.40
29345;DHT22;16339;48.748;2.222;2023-07-31T11:49:43;23.20;91.30
29345;DHT22;16339;48.748;2.222;2023-07-31T11:52:12;23.20;90.80
29345;DHT22;16339;48.748;2.222;2023-07-31T11:54:41;23.00;90.50
29345;DHT22;16339;48.748;2.222;2023-07-31T11:57:10;22.90;90.80
29345;DHT22;16339;48.748;2.222;2023-07-31T11:59:42;22.80;90.60
29345;DHT22;16339;48.748;2.222;2023-07-31T12:02:11;22.90;90.60
29345;DHT22;16339;48.748;2.222;2023-07-31T12:04:40;22.90;90.40
29345;DHT22;16339;48.748;2.222;2023-07-31T12:07:09;22.80;90.10
29345;DHT22;16339;48.748;2.222;2023-07-31T12:09:38;22.70;90.20
29345;DHT22;16339;48.748;2.222;2023-07-31T12:12:10;22.80;90.40
29345;DHT22;16339;48.748;2.222;2023-07-31T12:14:44;22.90;90.10
29345;DHT22;16339;48.748;2.222;2023-07-31T12:17:14;22.90;90.10
29345;DHT22;16339;48.748;2.222;2023-07-31T12:19:45;23.00;90.20
29345;DHT22;16339;48.748;2.222;2023-07-31T12:22:16;23.00;90.30
29345;DHT22;16339;48.748;2.222;2023-07-31T12:24:45;22.80;90.40
29345;DHT22;16339;48.748;2.222;2023-07-31T12:27:15;22.80;90.10
29345;DHT22;16339;48.748;2.222;2023-07-31T12:29:46;22.80;90.30
29345;DHT22;16339;48.748;2.222;2023-07-31T12:32:19;22.90;90.70
29345;DHT22;16339;48.748;2.222;2023-07-31T12:34:48;22.90;90.40
29345;DHT22;16339;48.748;2.222;2023-07-31T12:37:17;22.90;90.40
29345;DHT22;16339;48.748;2.222;2023-07-31T12:39:45;22.90;90.30
29345;DHT22;16339;48.748;2.222;2023-07-31T12:42:16;23.00;90.10
29345;DHT22;16339;48.748;2.222;2023-07-31T12:44:48;23.00;90.30
29345;DHT22;16339;48.748;2.222;2023-07-31T12:47:25;23.10;90.30
29345;DHT22;16339;48.748;2.222;2023-07-31T12:49:54;23.20;90.10
29345;DHT22;16339;48.748;2.222;2023-07-31T12:52:25;23.00;89.50
29345;DHT22;16339;48.748;2.222;2023-07-31T12:54:54;22.90;90.00
29345;DHT22;16339;48.748;2.222;2023-07-31T12:57:25;22.90;90.20
29345;DHT22;16339;48.748;2.222;2023-07-31T12:59:56;23.00;90.00
29345;DHT22;16339;48.748;2.222;2023-07-31T13:02:24;23.10;89.80
29345;DHT22;16339;48.748;2.222;2023-07-31T13:04:53;23.20;89.70
29345;DHT22;16339;48.748;2.222;2023-07-31T13:07:22;23.30;89.40
29345;DHT22;16339;48.748;2.222;2023-07-31T13:09:51;23.30;88.80
29345;DHT22;16339;48.748;2.222;2023-07-31T13:12:20;23.40;88.40
29345;DHT22;16339;48.748;2.222;2023-07-31T13:14:48;23.20;88.30
29345;DHT22;16339;48.748;2.222;2023-07-31T13:17:20;23.20;89.00
29345;DHT22;16339;48.748;2.222;2023-07-31T13:19:49;23.40;88.80
29345;DHT22;16339;48.748;2.222;2023-07-31T13:22:18;23.50;88.30
29345;DHT22;16339;48.748;2.222;2023-07-31T13:24:46;23.70;88.60
29345;DHT22;16339;48.748;2.222;2023-07-31T13:27:15;23.80;88.40
29345;DHT22;16339;48.748;2.222;2023-07-31T13:29:48;24.00;87.80
29345;DHT22;16339;48.748;2.222;2023-07-31T13:32:21;23.80;87.10
29345;DHT22;16339;48.748;2.222;2023-07-31T13:34:51;23.90;87.10
29345;DHT22;16339;48.748;2.222;2023-07-31T13:37:20;23.80;87.40
29345;DHT22;16339;48.748;2.222;2023-07-31T13:39:49;23.80;87.40
29345;DHT22;16339;48.748;2.222;2023-07-31T13:42:24;23.80;87.40
29345;DHT22;16339;48.748;2.222;2023-07-31T13:44:54;23.80;87.40
29345;DHT22;16339;48.748;2.222;2023-07-31T13:47:26;23.70;87.40
29345;DHT22;16339;48.748;2.222;2023-07-31T13:49:56;23.70;86.10
29345;DHT22;16339;48.748;2.222;2023-07-31T13:52:25;23.60;86.60
29345;DHT22;16339;48.748;2.222;2023-07-31T13:54:54;23.30;87.30
29345;DHT22;16339;48.748;2.222;2023-07-31T13:57:25;23.30;87.90
29345;DHT22;16339;48.748;2.222;2023-07-31T13:59:53;23.20;88.30
29345;DHT22;16339;48.748;2.222;2023-07-31T14:02:27;23.30;88.30
29345;DHT22;16339;48.748;2.222;2023-07-31T14:04:56;23.20;87.90
29345;DHT22;16339;48.748;2.222;2023-07-31T14:07:27;23.10;88.90
29345;DHT22;16339;48.748;2.222;2023-07-31T14:09:55;23.00;89.80
29345;DHT22;16339;48.748;2.222;2023-07-31T14:12:36;23.20;89.60
29345;DHT22;16339;48.748;2.222;2023-07-31T14:15:06;23.30;89.50
29345;DHT22;16339;48.748;2.222;2023-07-31T14:17:37;23.00;90.40
29345;DHT22;16339;48.748;2.222;2023-07-31T14:20:08;23.00;90.60
29345;DHT22;16339;48.748;2.222;2023-07-31T14:22:37;23.00;90.80
29345;DHT22;16339;48.748;2.222;2023-07-31T14:25:09;22.60;91.40
29345;DHT22;16339;48.748;2.222;2023-07-31T14:27:37;22.70;92.40
29345;DHT22;16339;48.748;2.222;2023-07-31T14:30:09;22.50;92.60
29345;DHT22;16339;48.748;2.222;2023-07-31T14:32:42;22.60;93.60
29345;DHT22;16339;48.748;2.222;2023-07-31T14:35:11;22.50;94.40
29345;DHT22;16339;48.748;2.222;2023-07-31T14:37:45;22.50;94.80
29345;DHT22;16339;48.748;2.222;2023-07-31T14:40:13;22.50;95.10
29345;DHT22;16339;48.748;2.222;2023-07-31T14:42:42;22.60;95.20
29345;DHT22;16339;48.748;2.222;2023-07-31T14:45:12;22.70;95.40
29345;DHT22;16339;48.748;2.222;2023-07-31T14:47:43;22.80;95.70
29345;DHT22;16339;48.748;2.222;2023-07-31T14:50:12;22.80;95.20
29345;DHT22;16339;48.748;2.222;2023-07-31T14:52:41;22.90;95.60
29345;DHT22;16339;48.748;2.222;2023-07-31T14:55:09;22.80;94.00
29345;DHT22;16339;48.748;2.222;2023-07-31T14:57:38;22.80;94.10
29345;DHT22;16339;48.748;2.222;2023-07-31T15:00:08;22.70;94.00
29345;DHT22;16339;48.748;2.222;2023-07-31T15:02:37;22.80;94.00
29345;DHT22;16339;48.748;2.222;2023-07-31T15:05:09;22.90;94.40
29345;DHT22;16339;48.748;2.222;2023-07-31T15:07:37;23.00;94.50
29345;DHT22;16339;48.748;2.222;2023-07-31T15:10:07;23.10;94.70
29345;DHT22;16339;48.748;2.222;2023-07-31T15:12:36;23.10;94.70
29345;DHT22;16339;48.748;2.222;2023-07-31T15:15:08;23.10;93.90
29345;DHT22;16339;48.748;2.222;2023-07-31T15:17:36;23.10;93.80
29345;DHT22;16339;48.748;2.222;2023-07-31T15:20:12;23.20;93.90
29345;DHT22;16339;48.748;2.222;2023-07-31T15:22:41;23.20;93.50
29345;DHT22;16339;48.748;2.222;2023-07-31T15:25:10;23.20;93.30
29345;DHT22;16339;48.748;2.222;2023-07-31T15:27:39;22.90;92.90
29345;DHT22;16339;48.748;2.222;2023-07-31T15:30:10;23.00;93.00
29345;DHT22;16339;48.748;2.222;2023-07-31T15:32:39;23.00;93.30
29345;DHT22;16339;48.748;2.222;2023-07-31T15:35:11;23.00;93.10
29345;DHT22;16339;48.748;2.222;2023-07-31T15:37:40;22.90;93.70
29345;DHT22;16339;48.748;2.222;2023-07-31T15:40:10;22.70;93.70
29345;DHT22;16339;48.748;2.222;2023-07-31T15:42:39;22.80;93.90
29345;DHT22;16339;48.748;2.222;2023-07-31T15:45:09;22.80;93.70
29345;DHT22;16339;48.748;2.222;2023-07-31T15:47:39;22.80;93.50
29345;DHT22;16339;48.748;2.222;2023-07-31T15:50:10;22.80;93.60
29345;DHT22;16339;48.748;2.222;2023-07-31T15:52:39;22.70;93.70
29345;DHT22;16339;48.748;2.222;2023-07-31T15:55:08;22.50;93.80